createdAt,value
2022-11-30T00:00:16.738Z,23.37
2022-11-30T00:02:43.727Z,21.80
2022-11-30T00:05:11.435Z,27.70
2022-11-30T00:07:38.531Z,24.87
2022-11-30T00:10:07.462Z,19.63
2022-11-30T00:12:34.403Z,25.03
2022-11-30T00:15:01.448Z,27.43
2022-11-30T00:17:29.845Z,32.30
2022-11-30T00:19:56.704Z,23.97
2022-11-30T00:22:23.615Z,24.80
2022-11-30T00:24:50.481Z,23.23
2022-11-30T00:27:17.296Z,22.73
2022-11-30T00:29:44.172Z,21.60
2022-11-30T00:32:10.974Z,27.00
2022-11-30T00:34:39.150Z,23.63
2022-11-30T00:37:06.027Z,20.33
2022-11-30T00:39:35.595Z,24.20
2022-11-30T00:42:03.017Z,25.27
2022-11-30T00:44:29.945Z,22.07
2022-11-30T00:46:56.744Z,21.90
2022-11-30T00:49:23.607Z,22.10
2022-11-30T00:51:51.954Z,24.90
2022-11-30T00:54:19.019Z,25.83
2022-11-30T00:56:45.885Z,23.93
2022-11-30T00:59:12.779Z,23.23
2022-11-30T01:01:39.615Z,22.50
2022-11-30T01:04:06.959Z,23.30
2022-11-30T01:06:33.851Z,23.60
2022-11-30T01:09:02.915Z,23.53
2022-11-30T01:11:30.976Z,21.67
2022-11-30T01:13:59.094Z,22.37
2022-11-30T01:16:29.292Z,21.70
2022-11-30T01:18:56.894Z,19.83
2022-11-30T01:21:25.396Z,20.40
2022-11-30T01:23:52.936Z,23.33
2022-11-30T01:26:21.775Z,21.47
2022-11-30T01:28:50.525Z,19.57
2022-11-30T01:31:18.018Z,20.63
2022-11-30T01:33:48.765Z,26.20
2022-11-30T01:36:17.605Z,23.60
2022-11-30T01:38:45.879Z,20.10
2022-11-30T01:41:14.695Z,18.70
2022-11-30T01:43:44.733Z,18.97
2022-11-30T01:46:22.196Z,19.23
2022-11-30T01:48:55.154Z,20.30
2022-11-30T01:51:22.387Z,21.97
2022-11-30T01:53:49.427Z,25.23
2022-11-30T01:56:17.631Z,24.20
2022-11-30T01:58:45.991Z,23.83
2022-11-30T02:01:12.891Z,26.27
2022-11-30T02:03:46.566Z,25.07
2022-11-30T02:06:14.320Z,21.00
2022-11-30T02:08:41.193Z,22.60
2022-11-30T02:11:14.506Z,21.17
2022-11-30T02:13:52.891Z,24.47
2022-11-30T02:16:27.083Z,22.20
2022-11-30T02:19:05.802Z,25.80
2022-11-30T02:21:40.236Z,22.67
2022-11-30T02:24:39.413Z,23.87
2022-11-30T02:27:18.429Z,23.47
2022-11-30T02:29:52.568Z,19.83
2022-11-30T02:32:23.106Z,23.10
2022-11-30T02:34:51.836Z,20.07
2022-11-30T02:37:19.552Z,24.73
2022-11-30T02:39:46.514Z,23.17
2022-11-30T02:42:14.247Z,22.73
2022-11-30T02:44:42.720Z,19.63
2022-11-30T02:47:21.309Z,18.60
2022-11-30T02:49:53.840Z,25.37
2022-11-30T02:52:24.981Z,21.90
2022-11-30T02:54:52.197Z,23.80
2022-11-30T02:57:19.117Z,25.90
2022-11-30T02:59:46.018Z,22.57
2022-11-30T03:02:14.214Z,20.63
2022-11-30T03:04:41.091Z,28.20
2022-11-30T03:07:07.940Z,23.30
2022-11-30T03:09:34.688Z,22.53
2022-11-30T03:12:01.515Z,27.13
2022-11-30T03:14:28.336Z,27.13
2022-11-30T03:16:55.150Z,28.30
2022-11-30T03:19:23.423Z,27.33
2022-11-30T03:21:50.223Z,22.73
2022-11-30T03:24:17.016Z,27.77
2022-11-30T03:26:44.027Z,26.70
2022-11-30T03:29:10.986Z,24.27
2022-11-30T03:31:37.812Z,27.30
2022-11-30T03:34:04.673Z,23.37
2022-11-30T03:36:32.946Z,26.40
2022-11-30T03:39:00.152Z,24.00
2022-11-30T03:41:26.959Z,25.10
2022-11-30T03:43:54.009Z,20.20
2022-11-30T03:46:20.851Z,24.17
2022-11-30T03:48:47.842Z,17.07
2022-11-30T03:51:14.894Z,20.90
2022-11-30T03:53:43.135Z,27.27
2022-11-30T03:56:11.319Z,22.67
2022-11-30T03:58:38.760Z,22.37
2022-11-30T04:01:07.839Z,19.20
2022-11-30T04:03:35.834Z,25.23
2022-11-30T04:06:04.242Z,20.20
2022-11-30T04:08:31.973Z,21.43
2022-11-30T04:11:01.842Z,23.07
2022-11-30T04:13:29.797Z,24.17
2022-11-30T04:15:56.912Z,21.50
2022-11-30T04:18:26.462Z,26.07
2022-11-30T04:20:54.544Z,26.20
2022-11-30T04:23:22.418Z,23.80
2022-11-30T04:25:49.389Z,24.77
2022-11-30T04:28:18.007Z,19.10
2022-11-30T04:30:45.844Z,20.27
2022-11-30T04:33:14.396Z,25.40
2022-11-30T04:35:42.107Z,21.90
2022-11-30T04:38:09.165Z,23.43
2022-11-30T04:40:39.670Z,19.53
2022-11-30T04:43:06.899Z,19.97
2022-11-30T04:45:35.840Z,19.03
2022-11-30T04:48:02.753Z,19.63
2022-11-30T04:50:29.603Z,21.23
2022-11-30T04:52:56.637Z,20.37
2022-11-30T04:55:23.533Z,19.93
2022-11-30T04:57:50.468Z,24.43
2022-11-30T05:00:18.910Z,23.37
2022-11-30T05:02:52.478Z,27.23
2022-11-30T05:05:20.458Z,31.63
2022-11-30T05:07:50.240Z,25.73
2022-11-30T05:10:17.371Z,26.93
2022-11-30T05:12:44.300Z,31.67
2022-11-30T05:15:11.639Z,24.37
2022-11-30T05:17:39.289Z,29.37
2022-11-30T05:20:08.595Z,27.93
2022-11-30T05:22:35.523Z,30.93
2022-11-30T05:25:02.537Z,30.17
2022-11-30T05:27:29.474Z,27.30
2022-11-30T05:29:56.281Z,28.13
2022-11-30T05:32:23.171Z,26.17
2022-11-30T05:34:51.644Z,20.97
2022-11-30T05:37:20.212Z,23.23
2022-11-30T05:39:47.108Z,22.90
2022-11-30T05:42:13.930Z,17.60
2022-11-30T05:44:40.811Z,16.83
2022-11-30T05:47:07.703Z,22.33
2022-11-30T05:49:34.562Z,21.57
2022-11-30T05:52:01.452Z,20.57
2022-11-30T05:54:29.624Z,23.83
2022-11-30T05:56:56.638Z,19.00
2022-11-30T05:59:23.745Z,19.60
2022-11-30T06:01:52.371Z,26.83
2022-11-30T06:04:19.638Z,20.27
2022-11-30T06:06:46.765Z,26.00
2022-11-30T06:09:13.637Z,24.13
2022-11-30T06:11:41.784Z,28.27
2022-11-30T06:14:08.782Z,24.93
2022-11-30T06:16:38.477Z,31.03
2022-11-30T06:19:05.586Z,26.93
2022-11-30T06:21:32.396Z,26.03
2022-11-30T06:23:59.282Z,27.20
2022-11-30T06:26:26.252Z,25.87
2022-11-30T06:28:54.472Z,23.73
2022-11-30T06:31:21.291Z,26.03
2022-11-30T06:33:48.191Z,22.67
2022-11-30T06:36:21.123Z,23.57
2022-11-30T06:38:47.970Z,22.17
2022-11-30T06:41:14.956Z,21.47
2022-11-30T06:43:41.872Z,27.60
2022-11-30T06:46:10.280Z,24.73
2022-11-30T06:48:37.471Z,25.90
2022-11-30T06:51:06.075Z,25.83
2022-11-30T06:53:32.943Z,24.83
2022-11-30T06:56:09.425Z,27.93
2022-11-30T06:58:37.467Z,23.13
2022-11-30T07:01:05.437Z,25.60
2022-11-30T07:03:33.779Z,27.43
2022-11-30T07:06:00.572Z,33.43
2022-11-30T07:08:27.438Z,26.57
2022-11-30T07:10:54.284Z,29.23
2022-11-30T07:13:21.169Z,26.23
2022-11-30T07:15:48.033Z,27.47
2022-11-30T07:18:14.849Z,31.23
2022-11-30T07:20:43.188Z,23.30
2022-11-30T07:23:28.869Z,32.03
2022-11-30T07:26:07.535Z,25.17
2022-11-30T07:28:36.090Z,28.23
2022-11-30T07:31:16.175Z,30.10
2022-11-30T07:33:44.180Z,23.70
2022-11-30T07:36:12.380Z,28.13
2022-11-30T07:38:39.625Z,23.37
2022-11-30T07:41:06.994Z,29.53
2022-11-30T07:43:34.285Z,28.40
2022-11-30T07:46:01.424Z,25.47
2022-11-30T07:48:28.434Z,27.17
2022-11-30T07:50:55.514Z,33.23
2022-11-30T07:53:23.753Z,28.93
2022-11-30T07:55:56.731Z,34.37
2022-11-30T07:58:23.926Z,32.83
2022-11-30T08:00:51.337Z,37.47
2022-11-30T08:03:18.394Z,38.10
2022-11-30T08:05:45.568Z,34.80
2022-11-30T08:08:12.420Z,30.90
2022-11-30T08:10:40.898Z,34.00
2022-11-30T08:13:07.839Z,36.20
2022-11-30T08:15:35.162Z,41.23
2022-11-30T08:18:05.541Z,33.20
2022-11-30T08:20:32.517Z,34.53
2022-11-30T08:22:59.580Z,36.30
2022-11-30T08:25:26.578Z,33.87
2022-11-30T08:27:55.003Z,57.03
2022-11-30T08:30:25.178Z,54.67
2022-11-30T08:32:54.761Z,37.87
2022-11-30T08:35:21.813Z,32.43
2022-11-30T08:37:48.759Z,35.10
2022-11-30T08:40:15.894Z,37.03
2022-11-30T08:42:42.766Z,33.93
2022-11-30T08:45:11.630Z,30.83
2022-11-30T08:47:38.570Z,40.57
2022-11-30T08:50:06.481Z,38.73
2022-11-30T08:52:33.370Z,39.37
2022-11-30T08:55:00.218Z,33.27
2022-11-30T08:57:27.107Z,37.40
2022-11-30T08:59:53.966Z,37.67
2022-11-30T09:02:22.284Z,34.57
2022-11-30T09:04:51.033Z,39.47
2022-11-30T09:07:18.115Z,34.67
2022-11-30T09:09:45.212Z,35.93
2022-11-30T09:12:12.427Z,35.17
2022-11-30T09:14:39.642Z,32.70
2022-11-30T09:17:06.603Z,32.47
2022-11-30T09:19:34.914Z,34.00
2022-11-30T09:22:01.764Z,32.30
2022-11-30T09:24:28.909Z,38.30
2022-11-30T09:26:56.776Z,34.40
2022-11-30T09:29:23.886Z,34.90
2022-11-30T09:31:50.777Z,33.30
2022-11-30T09:34:17.714Z,36.20
2022-11-30T09:36:46.090Z,33.47
2022-11-30T09:39:13.200Z,33.83
2022-11-30T09:42:06.040Z,32.63
2022-11-30T09:44:39.697Z,35.87
2022-11-30T09:47:17.490Z,37.90
2022-11-30T09:49:45.409Z,33.23
2022-11-30T09:52:18.771Z,36.17
2022-11-30T09:54:48.019Z,35.90
2022-11-30T09:57:25.645Z,36.60
2022-11-30T09:59:56.005Z,30.50
2022-11-30T10:02:27.273Z,36.40
2022-11-30T10:04:54.684Z,34.10
2022-11-30T10:07:40.802Z,41.13
2022-11-30T10:10:35.453Z,40.93
2022-11-30T10:13:13.612Z,40.03
2022-11-30T10:15:54.299Z,39.80
2022-11-30T10:18:32.387Z,39.40
2022-11-30T10:21:07.192Z,38.83
2022-11-30T10:23:47.110Z,35.93
2022-11-30T10:26:16.922Z,35.37
2022-11-30T10:28:51.560Z,35.60
2022-11-30T10:31:20.404Z,37.93
2022-11-30T10:33:49.976Z,35.90
2022-11-30T10:36:26.979Z,38.73
2022-11-30T10:39:00.978Z,32.77
2022-11-30T10:41:32.189Z,33.90
2022-11-30T10:44:02.792Z,34.63
2022-11-30T10:46:33.823Z,38.67
2022-11-30T10:49:04.938Z,32.40
2022-11-30T10:51:34.286Z,35.60
2022-11-30T10:54:05.825Z,35.97
2022-11-30T10:56:32.711Z,33.20
2022-11-30T10:59:03.728Z,31.70
2022-11-30T11:01:34.205Z,34.57
2022-11-30T11:04:10.230Z,30.97
2022-11-30T11:06:43.226Z,34.33
2022-11-30T11:09:37.332Z,29.77
2022-11-30T11:12:06.242Z,26.33
2022-11-30T11:14:37.684Z,28.07
2022-11-30T11:17:21.637Z,30.50
2022-11-30T11:19:49.837Z,26.20
2022-11-30T11:22:19.818Z,26.10
2022-11-30T11:24:49.612Z,30.83
2022-11-30T11:27:23.621Z,30.23
2022-11-30T11:30:01.056Z,23.13
2022-11-30T11:32:27.988Z,19.40
2022-11-30T11:34:54.882Z,20.33
2022-11-30T11:37:24.351Z,18.97
2022-11-30T11:40:02.160Z,19.10
2022-11-30T11:42:31.690Z,27.83
2022-11-30T11:45:00.905Z,33.07
2022-11-30T11:47:33.038Z,31.37
2022-11-30T11:50:43.309Z,28.27
2022-11-30T11:53:25.473Z,26.20
2022-11-30T11:55:57.866Z,27.57
2022-11-30T11:58:37.199Z,39.83
2022-11-30T12:01:38.041Z,41.50
2022-11-30T12:04:05.099Z,36.67
2022-11-30T12:06:34.458Z,34.10
2022-11-30T12:09:05.204Z,34.90
2022-11-30T12:11:42.437Z,35.03
2022-11-30T12:14:12.446Z,32.83
2022-11-30T12:16:56.755Z,30.87
2022-11-30T12:19:33.675Z,29.70
2022-11-30T12:22:07.544Z,30.33
2022-11-30T12:24:55.721Z,32.53
2022-11-30T12:27:31.451Z,25.93
2022-11-30T12:30:09.869Z,23.40
2022-11-30T12:33:14.461Z,32.87
2022-11-30T12:35:53.026Z,34.40
2022-11-30T12:38:26.669Z,29.15
2022-11-30T12:41:01.594Z,22.17
2022-11-30T12:43:39.254Z,20.90
2022-11-30T12:46:14.838Z,19.43
2022-11-30T12:48:51.898Z,19.57
2022-11-30T12:51:29.822Z,17.77
2022-11-30T12:54:07.421Z,17.53
2022-11-30T12:56:45.667Z,17.97
2022-11-30T12:59:27.946Z,20.23
2022-11-30T13:02:16.149Z,17.03
2022-11-30T13:04:47.102Z,19.87
2022-11-30T13:07:25.237Z,16.30
2022-11-30T13:09:56.563Z,17.88
2022-11-30T13:12:29.379Z,16.23
2022-11-30T13:15:00.860Z,17.23
2022-11-30T13:17:31.276Z,18.37
2022-11-30T13:20:07.636Z,20.17
2022-11-30T13:22:43.005Z,18.30
2022-11-30T13:25:34.058Z,19.00
2022-11-30T13:28:16.525Z,20.60
2022-11-30T13:30:50.972Z,20.07
2022-11-30T13:33:48.146Z,18.47
2022-11-30T13:36:27.297Z,20.57
2022-11-30T13:39:29.709Z,22.63
2022-11-30T13:42:24.018Z,29.70
2022-11-30T13:44:51.324Z,68.03
2022-11-30T13:47:28.844Z,37.37
2022-11-30T13:49:59.076Z,29.73
2022-11-30T13:53:19.561Z,35.63
2022-11-30T13:56:07.684Z,32.53
2022-11-30T13:58:35.319Z,34.00
2022-11-30T14:01:26.743Z,39.60
2022-11-30T14:04:29.730Z,37.67
2022-11-30T14:06:56.587Z,37.87
2022-11-30T14:09:54.726Z,38.30
2022-11-30T14:12:55.905Z,38.47
2022-11-30T14:15:55.776Z,34.33
2022-11-30T14:18:30.270Z,36.83
2022-11-30T14:21:03.494Z,39.87
2022-11-30T14:23:40.221Z,37.80
2022-11-30T14:26:11.210Z,41.80
2022-11-30T14:28:42.827Z,32.93
2022-11-30T14:31:15.998Z,36.67
2022-11-30T14:33:49.309Z,35.20
2022-11-30T14:36:19.224Z,35.50
2022-11-30T14:38:46.085Z,37.00
2022-11-30T14:41:21.123Z,37.67
2022-11-30T14:44:03.538Z,35.20
2022-11-30T14:46:31.001Z,38.33
2022-11-30T14:49:14.140Z,37.13
2022-11-30T14:51:44.815Z,36.10
2022-11-30T14:54:38.464Z,33.43
2022-11-30T14:57:15.908Z,35.03
2022-11-30T14:59:49.127Z,32.97
2022-11-30T15:02:23.850Z,39.10
2022-11-30T15:04:53.305Z,31.33
2022-11-30T15:07:23.038Z,31.80
2022-11-30T15:09:57.278Z,34.77
2022-11-30T15:12:25.629Z,28.47
2022-11-30T15:15:03.257Z,35.63
2022-11-30T15:17:30.297Z,27.23
2022-11-30T15:19:57.204Z,28.90
2022-11-30T15:22:25.485Z,35.37
2022-11-30T15:24:52.434Z,33.27
2022-11-30T15:27:22.795Z,37.43
2022-11-30T15:29:56.824Z,33.43
2022-11-30T15:32:24.436Z,27.80
2022-11-30T15:34:56.744Z,31.77
2022-11-30T15:37:30.286Z,30.70
2022-11-30T15:39:59.793Z,31.53
2022-11-30T15:42:29.841Z,26.13
2022-11-30T15:45:11.070Z,26.57
2022-11-30T15:47:38.885Z,25.80
2022-11-30T15:50:37.431Z,25.93
2022-11-30T15:53:33.205Z,30.07
2022-11-30T15:56:06.176Z,27.73
2022-11-30T15:58:44.735Z,20.43
2022-11-30T16:01:14.598Z,23.97
2022-11-30T16:04:03.974Z,21.57
2022-11-30T16:06:33.889Z,22.27
2022-11-30T16:09:06.275Z,24.33
2022-11-30T16:11:34.830Z,20.97
2022-11-30T16:14:01.879Z,21.23
2022-11-30T16:16:31.243Z,20.33
2022-11-30T16:18:58.205Z,23.43
2022-11-30T16:21:25.261Z,21.13
2022-11-30T16:23:52.096Z,21.97
2022-11-30T16:26:43.663Z,19.13
2022-11-30T16:29:07.328Z,19.63
2022-11-30T16:31:35.144Z,21.07
2022-11-30T16:34:02.136Z,20.23
2022-11-30T16:36:30.390Z,20.90
2022-11-30T16:38:57.730Z,23.50
2022-11-30T16:41:27.535Z,22.40
2022-11-30T16:43:55.741Z,22.63
2022-11-30T16:46:24.330Z,15.83
2022-11-30T16:48:51.655Z,19.17
2022-11-30T16:51:21.366Z,19.13
2022-11-30T16:53:48.396Z,20.37
2022-11-30T16:56:16.065Z,18.40
2022-11-30T16:58:44.666Z,18.77
2022-11-30T17:01:15.313Z,19.80
2022-11-30T17:03:46.712Z,20.17
2022-11-30T17:06:17.776Z,19.60
2022-11-30T17:08:44.922Z,15.90
2022-11-30T17:11:17.140Z,20.30
2022-11-30T17:13:45.706Z,17.30
2022-11-30T17:16:12.630Z,16.43
2022-11-30T17:18:39.566Z,14.63
2022-11-30T17:21:06.946Z,17.67
2022-11-30T17:23:33.773Z,17.27
2022-11-30T17:26:00.719Z,15.57
2022-11-30T17:28:27.592Z,16.53
2022-11-30T17:30:55.806Z,16.27
2022-11-30T17:33:22.755Z,16.60
2022-11-30T17:35:49.707Z,14.00
2022-11-30T17:38:16.589Z,16.83
2022-11-30T17:40:43.467Z,15.67
2022-11-30T17:43:10.304Z,13.70
2022-11-30T17:45:39.167Z,14.43
2022-11-30T17:48:07.520Z,15.43
2022-11-30T17:50:34.508Z,15.43
2022-11-30T17:53:01.362Z,15.73
2022-11-30T17:55:28.227Z,15.97
2022-11-30T17:57:55.125Z,15.60
2022-11-30T18:00:23.108Z,12.83
2022-11-30T18:02:50.910Z,13.43
2022-11-30T18:05:19.815Z,14.23
2022-11-30T18:07:47.188Z,13.20
2022-11-30T18:10:14.754Z,16.40
2022-11-30T18:12:41.578Z,12.80
2022-11-30T18:15:09.410Z,13.83
2022-11-30T18:17:36.380Z,15.10
2022-11-30T18:20:04.233Z,16.33
2022-11-30T18:22:32.923Z,15.10
2022-11-30T18:25:00.057Z,14.67
2022-11-30T18:27:26.945Z,13.50
2022-11-30T18:29:53.921Z,14.63
2022-11-30T18:32:20.736Z,17.47
2022-11-30T18:34:49.822Z,15.87
2022-11-30T18:37:17.141Z,14.73
2022-11-30T18:39:45.363Z,16.00
2022-11-30T18:42:12.265Z,14.53
2022-11-30T18:44:39.066Z,15.20
2022-11-30T18:47:05.881Z,14.73
2022-11-30T18:49:32.822Z,15.10
2022-11-30T18:51:59.825Z,14.57
2022-11-30T18:54:26.780Z,15.97
2022-11-30T18:56:54.919Z,15.60
2022-11-30T18:59:21.758Z,15.53
2022-11-30T19:01:50.832Z,15.73
2022-11-30T19:04:17.958Z,14.93
2022-11-30T19:06:44.835Z,15.20
2022-11-30T19:09:14.501Z,15.30
2022-11-30T19:11:42.428Z,18.73
2022-11-30T19:14:13.564Z,14.87
2022-11-30T19:16:40.759Z,16.40
2022-11-30T19:19:10.554Z,15.13
2022-11-30T19:21:37.455Z,16.57
2022-11-30T19:24:04.940Z,15.33
2022-11-30T19:26:32.085Z,14.57
2022-11-30T19:28:59.142Z,15.20
2022-11-30T19:31:27.706Z,17.53
2022-11-30T19:33:55.824Z,15.13
2022-11-30T19:36:24.341Z,14.93
2022-11-30T19:38:51.455Z,15.43
2022-11-30T19:41:19.725Z,17.00
2022-11-30T19:43:54.695Z,19.27
2022-11-30T19:46:24.908Z,16.60
2022-11-30T19:48:57.758Z,16.17
2022-11-30T19:51:24.685Z,15.40
2022-11-30T19:53:55.688Z,17.77
2022-11-30T19:56:23.560Z,19.97
2022-11-30T19:58:50.740Z,16.10
2022-11-30T20:01:20.048Z,14.00
2022-11-30T20:03:46.977Z,14.00
2022-11-30T20:06:15.255Z,13.93
2022-11-30T20:08:42.393Z,19.80
2022-11-30T20:11:10.394Z,19.67
2022-11-30T20:13:37.606Z,15.93
2022-11-30T20:16:09.211Z,15.53
2022-11-30T20:18:37.505Z,14.13
2022-11-30T20:21:15.991Z,14.40
2022-11-30T20:23:44.687Z,13.57
2022-11-30T20:26:13.752Z,13.07
2022-11-30T20:28:40.872Z,13.63
2022-11-30T20:31:09.113Z,13.30
2022-11-30T20:33:36.653Z,13.43
2022-11-30T20:36:04.698Z,13.53
2022-11-30T20:38:32.974Z,14.13
2022-11-30T20:41:00.235Z,16.30
2022-11-30T20:43:27.356Z,15.10
2022-11-30T20:45:54.263Z,14.43
2022-11-30T20:48:21.131Z,14.30
2022-11-30T20:51:07.587Z,13.83
2022-11-30T20:53:36.456Z,12.83
2022-11-30T20:56:03.674Z,14.67
2022-11-30T20:58:30.873Z,10.90
2022-11-30T21:00:58.871Z,11.83
2022-11-30T21:03:25.900Z,12.65
2022-11-30T21:05:52.891Z,29.73
2022-11-30T21:08:19.840Z,35.50
2022-11-30T21:10:48.096Z,15.77
2022-11-30T21:13:15.257Z,10.90
2022-11-30T21:15:42.170Z,11.17
2022-11-30T21:18:09.139Z,11.30
2022-11-30T21:20:35.934Z,14.37
2022-11-30T21:23:02.761Z,12.10
2022-11-30T21:25:29.578Z,11.27
2022-11-30T21:27:57.795Z,12.83
2022-11-30T21:30:24.629Z,14.13
2022-11-30T21:32:51.424Z,16.13
2022-11-30T21:35:18.253Z,10.73
2022-11-30T21:37:45.159Z,11.40
2022-11-30T21:40:12.630Z,12.70
2022-11-30T21:42:39.561Z,14.90
2022-11-30T21:45:09.447Z,10.90
2022-11-30T21:47:36.754Z,13.00
2022-11-30T21:50:04.371Z,11.53
2022-11-30T21:52:31.171Z,11.70
2022-11-30T21:54:58.047Z,11.17
2022-11-30T21:57:24.890Z,11.10
2022-11-30T21:59:51.735Z,11.10
2022-11-30T22:02:19.863Z,12.40
2022-11-30T22:04:47.123Z,11.67
2022-11-30T22:07:13.941Z,14.17
2022-11-30T22:09:41.165Z,14.67
2022-11-30T22:12:08.023Z,11.80
2022-11-30T22:14:36.357Z,12.53
2022-11-30T22:17:03.185Z,11.57
2022-11-30T22:19:31.404Z,11.23
2022-11-30T22:21:58.216Z,13.20
2022-11-30T22:24:25.085Z,13.20
2022-11-30T22:26:52.094Z,13.30
2022-11-30T22:29:21.150Z,11.77
2022-11-30T22:31:50.418Z,15.93
2022-11-30T22:34:17.662Z,12.13
2022-11-30T22:36:46.472Z,14.97
2022-11-30T22:39:15.072Z,14.70
2022-11-30T22:41:43.858Z,14.33
2022-11-30T22:44:12.999Z,13.43
2022-11-30T22:46:40.090Z,15.77
2022-11-30T22:49:09.303Z,13.37
2022-11-30T22:51:38.092Z,20.27
2022-11-30T22:54:06.840Z,13.63
2022-11-30T22:56:35.675Z,15.63
2022-11-30T22:59:02.897Z,20.80
2022-11-30T23:01:31.513Z,18.10
2022-11-30T23:04:03.308Z,20.37
2022-11-30T23:06:30.672Z,20.60
2022-11-30T23:08:59.213Z,20.40
2022-11-30T23:11:28.472Z,22.87
2022-11-30T23:13:55.604Z,23.57
2022-11-30T23:16:22.529Z,24.93
2022-11-30T23:18:51.548Z,23.30
2022-11-30T23:21:22.487Z,24.00
2022-11-30T23:23:49.662Z,24.20
2022-11-30T23:26:18.561Z,20.77
2022-11-30T23:28:48.088Z,22.20
2022-11-30T23:31:34.114Z,23.67
2022-11-30T23:34:04.937Z,24.73
2022-11-30T23:36:32.127Z,25.77
2022-11-30T23:39:00.837Z,27.17
2022-11-30T23:41:27.760Z,24.77
2022-11-30T23:43:56.295Z,27.40
2022-11-30T23:46:23.536Z,25.67
2022-11-30T23:48:50.786Z,23.20
2022-11-30T23:51:17.677Z,24.73
2022-11-30T23:53:44.628Z,32.37
2022-11-30T23:56:13.903Z,22.60
2022-11-30T23:58:40.740Z,24.37
